sensor_id;sensor_type;location;lat;lon;timestamp;P1;durP1;ratioP1;P2;durP2;ratioP2
22881;SDS011;11608;50.894;5.296;2023-04-01T00:00:44;28.88;;;26.88;;
22881;SDS011;11608;50.894;5.296;2023-04-01T00:03:10;28.73;;;26.52;;
22881;SDS011;11608;50.894;5.296;2023-04-01T00:05:37;29.23;;;27.23;;
22881;SDS011;11608;50.894;5.296;2023-04-01T00:08:03;29.25;;;26.95;;
22881;SDS011;11608;50.894;5.296;2023-04-01T00:10:29;27.83;;;25.90;;
22881;SDS011;11608;50.894;5.296;2023-04-01T00:12:55;28.83;;;26.63;;
22881;SDS011;11608;50.894;5.296;2023-04-01T00:15:21;29.08;;;26.95;;
22881;SDS011;11608;50.894;5.296;2023-04-01T00:17:47;28.58;;;26.50;;
22881;SDS011;11608;50.894;5.296;2023-04-01T00:20:13;28.58;;;26.75;;
22881;SDS011;11608;50.894;5.296;2023-04-01T00:22:40;29.27;;;27.27;;
22881;SDS011;11608;50.894;5.296;2023-04-01T00:25:06;29.65;;;27.65;;
22881;SDS011;11608;50.894;5.296;2023-04-01T00:27:32;28.50;;;26.50;;
22881;SDS011;11608;50.894;5.296;2023-04-01T00:29:58;28.85;;;26.95;;
22881;SDS011;11608;50.894;5.296;2023-04-01T00:32:25;29.05;;;27.13;;
22881;SDS011;11608;50.894;5.296;2023-04-01T00:34:51;29.50;;;27.48;;
22881;SDS011;11608;50.894;5.296;2023-04-01T00:37:17;28.70;;;26.67;;
22881;SDS011;11608;50.894;5.296;2023-04-01T00:39:46;29.73;;;27.55;;
22881;SDS011;11608;50.894;5.296;2023-04-01T00:42:12;29.42;;;27.33;;
22881;SDS011;11608;50.894;5.296;2023-04-01T00:44:38;28.98;;;26.98;;
22881;SDS011;11608;50.894;5.296;2023-04-01T00:47:05;27.55;;;25.75;;
22881;SDS011;11608;50.894;5.296;2023-04-01T00:49:36;28.65;;;26.55;;
22881;SDS011;11608;50.894;5.296;2023-04-01T00:52:03;29.02;;;27.02;;
22881;SDS011;11608;50.894;5.296;2023-04-01T00:54:32;29.10;;;26.88;;
22881;SDS011;11608;50.894;5.296;2023-04-01T00:57:01;27.80;;;25.77;;
22881;SDS011;11608;50.894;5.296;2023-04-01T00:59:30;28.02;;;26.10;;
22881;SDS011;11608;50.894;5.296;2023-04-01T01:01:57;27.92;;;25.83;;
22881;SDS011;11608;50.894;5.296;2023-04-01T01:04:31;29.42;;;27.15;;
22881;SDS011;11608;50.894;5.296;2023-04-01T01:07:04;27.02;;;25.05;;
22881;SDS011;11608;50.894;5.296;2023-04-01T01:12:22;30.02;;;27.48;;
22881;SDS011;11608;50.894;5.296;2023-04-01T01:15:08;26.58;;;24.48;;
22881;SDS011;11608;50.894;5.296;2023-04-01T01:33:28;29.92;;;27.38;;
22881;SDS011;11608;50.894;5.296;2023-04-01T01:36:02;29.10;;;26.90;;
22881;SDS011;11608;50.894;5.296;2023-04-01T01:38:31;28.63;;;26.70;;
22881;SDS011;11608;50.894;5.296;2023-04-01T01:40:59;28.60;;;26.55;;
22881;SDS011;11608;50.894;5.296;2023-04-01T01:43:26;27.88;;;25.75;;
22881;SDS011;11608;50.894;5.296;2023-04-01T01:45:55;27.65;;;25.45;;
22881;SDS011;11608;50.894;5.296;2023-04-01T01:48:23;27.63;;;25.63;;
22881;SDS011;11608;50.894;5.296;2023-04-01T01:50:50;29.13;;;27.13;;
22881;SDS011;11608;50.894;5.296;2023-04-01T01:53:19;28.77;;;26.42;;
22881;SDS011;11608;50.894;5.296;2023-04-01T01:55:46;28.75;;;26.67;;
22881;SDS011;11608;50.894;5.296;2023-04-01T02:00:46;28.02;;;26.13;;
22881;SDS011;11608;50.894;5.296;2023-04-01T02:03:17;28.17;;;26.30;;
22881;SDS011;11608;50.894;5.296;2023-04-01T02:05:43;27.70;;;25.80;;
22881;SDS011;11608;50.894;5.296;2023-04-01T02:10:37;26.95;;;25.15;;
22881;SDS011;11608;50.894;5.296;2023-04-01T02:13:07;27.92;;;26.02;;
22881;SDS011;11608;50.894;5.296;2023-04-01T02:15:37;27.80;;;25.92;;
22881;SDS011;11608;50.894;5.296;2023-04-01T02:18:03;28.30;;;26.50;;
22881;SDS011;11608;50.894;5.296;2023-04-01T02:20:29;29.00;;;27.08;;
22881;SDS011;11608;50.894;5.296;2023-04-01T02:22:56;28.95;;;27.05;;
22881;SDS011;11608;50.894;5.296;2023-04-01T02:25:26;29.65;;;27.58;;
22881;SDS011;11608;50.894;5.296;2023-04-01T02:27:55;28.70;;;26.70;;
22881;SDS011;11608;50.894;5.296;2023-04-01T02:30:22;28.50;;;26.33;;
22881;SDS011;11608;50.894;5.296;2023-04-01T02:32:49;28.50;;;26.55;;
22881;SDS011;11608;50.894;5.296;2023-04-01T02:35:15;29.35;;;27.25;;
22881;SDS011;11608;50.894;5.296;2023-04-01T02:37:42;28.75;;;26.73;;
22881;SDS011;11608;50.894;5.296;2023-04-01T02:40:10;29.45;;;27.35;;
22881;SDS011;11608;50.894;5.296;2023-04-01T02:42:40;29.20;;;27.30;;
22881;SDS011;11608;50.894;5.296;2023-04-01T02:45:08;29.15;;;27.25;;
22881;SDS011;11608;50.894;5.296;2023-04-01T02:47:37;29.50;;;27.50;;
22881;SDS011;11608;50.894;5.296;2023-04-01T02:50:03;27.83;;;25.90;;
22881;SDS011;11608;50.894;5.296;2023-04-01T02:52:29;29.95;;;27.95;;
22881;SDS011;11608;50.894;5.296;2023-04-01T02:54:56;29.63;;;27.50;;
22881;SDS011;11608;50.894;5.296;2023-04-01T02:57:23;29.65;;;27.55;;
22881;SDS011;11608;50.894;5.296;2023-04-01T02:59:49;28.88;;;26.88;;
22881;SDS011;11608;50.894;5.296;2023-04-01T03:02:16;29.30;;;27.40;;
22881;SDS011;11608;50.894;5.296;2023-04-01T03:04:42;29.20;;;27.10;;
22881;SDS011;11608;50.894;5.296;2023-04-01T03:07:08;29.27;;;27.17;;
22881;SDS011;11608;50.894;5.296;2023-04-01T03:09:37;29.10;;;27.00;;
22881;SDS011;11608;50.894;5.296;2023-04-01T03:12:03;27.20;;;25.30;;
22881;SDS011;11608;50.894;5.296;2023-04-01T03:14:29;28.60;;;26.70;;
22881;SDS011;11608;50.894;5.296;2023-04-01T03:16:55;29.23;;;27.23;;
22881;SDS011;11608;50.894;5.296;2023-04-01T03:19:25;29.58;;;27.40;;
22881;SDS011;11608;50.894;5.296;2023-04-01T03:21:51;28.70;;;26.60;;
22881;SDS011;11608;50.894;5.296;2023-04-01T03:24:17;28.98;;;27.08;;
22881;SDS011;11608;50.894;5.296;2023-04-01T03:26:46;29.95;;;27.85;;
22881;SDS011;11608;50.894;5.296;2023-04-01T03:29:14;29.58;;;27.33;;
22881;SDS011;11608;50.894;5.296;2023-04-01T03:31:40;31.25;;;29.15;;
22881;SDS011;11608;50.894;5.296;2023-04-01T03:34:07;30.50;;;28.38;;
22881;SDS011;11608;50.894;5.296;2023-04-01T03:36:33;31.85;;;29.45;;
22881;SDS011;11608;50.894;5.296;2023-04-01T03:38:59;30.15;;;28.05;;
22881;SDS011;11608;50.894;5.296;2023-04-01T03:41:25;29.88;;;27.77;;
22881;SDS011;11608;50.894;5.296;2023-04-01T03:43:55;30.45;;;28.25;;
22881;SDS011;11608;50.894;5.296;2023-04-01T03:46:21;31.70;;;29.50;;
22881;SDS011;11608;50.894;5.296;2023-04-01T03:48:47;30.65;;;28.35;;
22881;SDS011;11608;50.894;5.296;2023-04-01T03:51:13;30.83;;;28.63;;
22881;SDS011;11608;50.894;5.296;2023-04-01T03:53:39;28.45;;;26.55;;
22881;SDS011;11608;50.894;5.296;2023-04-01T03:56:08;30.48;;;28.20;;
22881;SDS011;11608;50.894;5.296;2023-04-01T03:58:34;29.98;;;27.98;;
22881;SDS011;11608;50.894;5.296;2023-04-01T04:01:01;29.80;;;27.50;;
22881;SDS011;11608;50.894;5.296;2023-04-01T04:03:27;28.98;;;26.98;;
22881;SDS011;11608;50.894;5.296;2023-04-01T04:05:53;29.55;;;27.25;;
22881;SDS011;11608;50.894;5.296;2023-04-01T04:08:24;31.33;;;29.05;;
22881;SDS011;11608;50.894;5.296;2023-04-01T04:10:56;29.90;;;27.58;;
22881;SDS011;11608;50.894;5.296;2023-04-01T04:13:29;29.90;;;27.90;;
22881;SDS011;11608;50.894;5.296;2023-04-01T04:15:55;29.90;;;27.80;;
22881;SDS011;11608;50.894;5.296;2023-04-01T04:18:21;29.85;;;27.65;;
22881;SDS011;11608;50.894;5.296;2023-04-01T04:20:47;30.02;;;27.85;;
22881;SDS011;11608;50.894;5.296;2023-04-01T04:23:16;31.33;;;28.80;;
22881;SDS011;11608;50.894;5.296;2023-04-01T04:25:52;30.90;;;28.60;;
22881;SDS011;11608;50.894;5.296;2023-04-01T04:28:18;31.15;;;28.65;;
22881;SDS011;11608;50.894;5.296;2023-04-01T04:30:47;29.95;;;27.75;;
22881;SDS011;11608;50.894;5.296;2023-04-01T04:33:13;31.33;;;28.83;;
22881;SDS011;11608;50.894;5.296;2023-04-01T04:35:39;31.75;;;29.20;;
22881;SDS011;11608;50.894;5.296;2023-04-01T04:38:05;31.48;;;29.23;;
22881;SDS011;11608;50.894;5.296;2023-04-01T04:40:36;32.03;;;29.52;;
22881;SDS011;11608;50.894;5.296;2023-04-01T04:43:02;32.10;;;29.48;;
22881;SDS011;11608;50.894;5.296;2023-04-01T04:45:28;30.95;;;28.75;;
22881;SDS011;11608;50.894;5.296;2023-04-01T04:47:55;31.58;;;29.17;;
22881;SDS011;11608;50.894;5.296;2023-04-01T04:50:21;32.25;;;29.67;;
22881;SDS011;11608;50.894;5.296;2023-04-01T04:52:47;32.92;;;30.38;;
22881;SDS011;11608;50.894;5.296;2023-04-01T04:55:13;32.83;;;29.90;;
22881;SDS011;11608;50.894;5.296;2023-04-01T04:57:41;33.08;;;30.48;;
22881;SDS011;11608;50.894;5.296;2023-04-01T05:00:10;32.28;;;29.67;;
22881;SDS011;11608;50.894;5.296;2023-04-01T05:02:36;32.85;;;30.35;;
22881;SDS011;11608;50.894;5.296;2023-04-01T05:05:03;31.92;;;29.48;;
22881;SDS011;11608;50.894;5.296;2023-04-01T05:07:37;31.23;;;28.83;;
22881;SDS011;11608;50.894;5.296;2023-04-01T05:10:03;31.73;;;29.08;;
22881;SDS011;11608;50.894;5.296;2023-04-01T05:12:29;32.40;;;29.73;;
22881;SDS011;11608;50.894;5.296;2023-04-01T05:14:57;31.20;;;28.65;;
22881;SDS011;11608;50.894;5.296;2023-04-01T05:17:23;33.10;;;30.42;;
22881;SDS011;11608;50.894;5.296;2023-04-01T05:19:52;32.03;;;29.52;;
22881;SDS011;11608;50.894;5.296;2023-04-01T05:22:18;34.05;;;31.35;;
22881;SDS011;11608;50.894;5.296;2023-04-01T05:24:45;34.38;;;31.80;;
22881;SDS011;11608;50.894;5.296;2023-04-01T05:27:17;32.08;;;29.35;;
22881;SDS011;11608;50.894;5.296;2023-04-01T05:29:46;33.83;;;31.23;;
22881;SDS011;11608;50.894;5.296;2023-04-01T05:32:12;31.90;;;29.45;;
22881;SDS011;11608;50.894;5.296;2023-04-01T05:34:38;32.30;;;29.85;;
22881;SDS011;11608;50.894;5.296;2023-04-01T05:37:04;33.17;;;30.35;;
22881;SDS011;11608;50.894;5.296;2023-04-01T05:39:35;33.47;;;31.15;;
22881;SDS011;11608;50.894;5.296;2023-04-01T05:42:01;32.67;;;30.30;;
22881;SDS011;11608;50.894;5.296;2023-04-01T05:44:27;32.83;;;30.48;;
22881;SDS011;11608;50.894;5.296;2023-04-01T05:46:53;33.28;;;30.90;;
22881;SDS011;11608;50.894;5.296;2023-04-01T05:49:19;31.27;;;28.75;;
22881;SDS011;11608;50.894;5.296;2023-04-01T05:51:45;31.52;;;29.05;;
22881;SDS011;11608;50.894;5.296;2023-04-01T05:54:14;31.00;;;28.60;;
22881;SDS011;11608;50.894;5.296;2023-04-01T05:56:40;29.90;;;27.80;;
22881;SDS011;11608;50.894;5.296;2023-04-01T05:59:06;28.80;;;26.80;;
22881;SDS011;11608;50.894;5.296;2023-04-01T06:01:34;28.80;;;26.67;;
22881;SDS011;11608;50.894;5.296;2023-04-01T06:04:03;28.48;;;26.48;;
22881;SDS011;11608;50.894;5.296;2023-04-01T06:06:37;27.55;;;25.65;;
22881;SDS011;11608;50.894;5.296;2023-04-01T06:09:12;27.13;;;25.23;;
22881;SDS011;11608;50.894;5.296;2023-04-01T06:11:45;27.80;;;26.00;;
22881;SDS011;11608;50.894;5.296;2023-04-01T06:14:20;27.83;;;25.80;;
22881;SDS011;11608;50.894;5.296;2023-04-01T06:17:05;27.50;;;25.50;;
22881;SDS011;11608;50.894;5.296;2023-04-01T06:25:01;28.15;;;26.25;;
22881;SDS011;11608;50.894;5.296;2023-04-01T06:40:55;26.17;;;24.42;;
22881;SDS011;11608;50.894;5.296;2023-04-01T06:43:38;27.42;;;25.63;;
22881;SDS011;11608;50.894;5.296;2023-04-01T06:46:14;26.98;;;24.92;;
22881;SDS011;11608;50.894;5.296;2023-04-01T06:51:20;27.00;;;25.20;;
22881;SDS011;11608;50.894;5.296;2023-04-01T06:53:54;27.27;;;25.48;;
22881;SDS011;11608;50.894;5.296;2023-04-01T06:56:23;27.30;;;25.50;;
22881;SDS011;11608;50.894;5.296;2023-04-01T06:59:09;28.55;;;26.65;;
22881;SDS011;11608;50.894;5.296;2023-04-01T07:01:40;27.73;;;25.92;;
22881;SDS011;11608;50.894;5.296;2023-04-01T07:04:11;27.55;;;25.65;;
22881;SDS011;11608;50.894;5.296;2023-04-01T07:06:47;27.02;;;25.13;;
22881;SDS011;11608;50.894;5.296;2023-04-01T07:09:16;27.15;;;25.30;;
22881;SDS011;11608;50.894;5.296;2023-04-01T07:11:44;27.73;;;25.90;;
22881;SDS011;11608;50.894;5.296;2023-04-01T07:16:59;28.05;;;26.05;;
22881;SDS011;11608;50.894;5.296;2023-04-01T07:19:29;27.73;;;25.73;;
22881;SDS011;11608;50.894;5.296;2023-04-01T07:22:02;27.45;;;25.65;;
22881;SDS011;11608;50.894;5.296;2023-04-01T07:24:34;29.42;;;27.42;;
22881;SDS011;11608;50.894;5.296;2023-04-01T07:27:00;28.38;;;26.38;;
22881;SDS011;11608;50.894;5.296;2023-04-01T07:29:26;29.35;;;27.20;;
22881;SDS011;11608;50.894;5.296;2023-04-01T07:34:41;28.42;;;26.40;;
22881;SDS011;11608;50.894;5.296;2023-04-01T07:52:15;29.23;;;27.23;;
22881;SDS011;11608;50.894;5.296;2023-04-01T08:00:31;27.70;;;25.80;;
22881;SDS011;11608;50.894;5.296;2023-04-01T08:05:33;27.13;;;25.35;;
22881;SDS011;11608;50.894;5.296;2023-04-01T08:08:10;27.55;;;25.75;;
22881;SDS011;11608;50.894;5.296;2023-04-01T08:10:44;26.88;;;25.05;;
22881;SDS011;11608;50.894;5.296;2023-04-01T08:21:43;27.40;;;25.50;;
22881;SDS011;11608;50.894;5.296;2023-04-01T08:26:50;27.10;;;25.20;;
22881;SDS011;11608;50.894;5.296;2023-04-01T08:29:21;27.50;;;25.60;;
22881;SDS011;11608;50.894;5.296;2023-04-01T08:31:59;28.23;;;26.27;;
22881;SDS011;11608;50.894;5.296;2023-04-01T08:34:28;28.48;;;26.48;;
22881;SDS011;11608;50.894;5.296;2023-04-01T08:36:58;28.48;;;26.48;;
22881;SDS011;11608;50.894;5.296;2023-04-01T08:39:33;28.02;;;26.02;;
22881;SDS011;11608;50.894;5.296;2023-04-01T08:50:04;28.15;;;26.25;;
22881;SDS011;11608;50.894;5.296;2023-04-01T08:52:53;29.02;;;26.92;;
22881;SDS011;11608;50.894;5.296;2023-04-01T09:00:32;27.50;;;25.60;;
22881;SDS011;11608;50.894;5.296;2023-04-01T09:16:40;27.20;;;25.30;;
22881;SDS011;11608;50.894;5.296;2023-04-01T09:27:03;28.30;;;26.10;;
22881;SDS011;11608;50.894;5.296;2023-04-01T09:32:39;28.92;;;26.73;;
22881;SDS011;11608;50.894;5.296;2023-04-01T09:45:32;28.75;;;26.65;;
22881;SDS011;11608;50.894;5.296;2023-04-01T09:50:39;27.92;;;25.67;;
22881;SDS011;11608;50.894;5.296;2023-04-01T09:58:33;28.45;;;26.40;;
22881;SDS011;11608;50.894;5.296;2023-04-01T10:12:05;28.75;;;26.85;;
22881;SDS011;11608;50.894;5.296;2023-04-01T10:20:00;28.25;;;26.27;;
22881;SDS011;11608;50.894;5.296;2023-04-01T10:22:44;29.48;;;27.50;;
22881;SDS011;11608;50.894;5.296;2023-04-01T10:25:28;28.38;;;26.48;;
22881;SDS011;11608;50.894;5.296;2023-04-01T10:38:28;31.13;;;28.63;;
22881;SDS011;11608;50.894;5.296;2023-04-01T10:46:41;32.92;;;29.70;;
22881;SDS011;11608;50.894;5.296;2023-04-01T10:59:07;29.38;;;27.08;;
22881;SDS011;11608;50.894;5.296;2023-04-01T11:51:57;31.35;;;28.83;;
22881;SDS011;11608;50.894;5.296;2023-04-01T11:54:36;29.92;;;27.55;;
22881;SDS011;11608;50.894;5.296;2023-04-01T11:59:42;29.73;;;27.25;;
22881;SDS011;11608;50.894;5.296;2023-04-01T12:02:36;30.80;;;28.10;;
22881;SDS011;11608;50.894;5.296;2023-04-01T12:10:18;30.08;;;27.88;;
22881;SDS011;11608;50.894;5.296;2023-04-01T12:17:58;28.85;;;26.60;;
22881;SDS011;11608;50.894;5.296;2023-04-01T12:26:06;27.65;;;25.55;;
22881;SDS011;11608;50.894;5.296;2023-04-01T12:28:47;26.13;;;24.33;;
22881;SDS011;11608;50.894;5.296;2023-04-01T12:34:27;28.00;;;25.88;;
22881;SDS011;11608;50.894;5.296;2023-04-01T12:39:37;28.17;;;26.17;;
22881;SDS011;11608;50.894;5.296;2023-04-01T12:47:50;27.55;;;25.55;;
22881;SDS011;11608;50.894;5.296;2023-04-01T12:55:51;26.55;;;24.75;;
22881;SDS011;11608;50.894;5.296;2023-04-01T13:13:43;28.48;;;26.27;;
22881;SDS011;11608;50.894;5.296;2023-04-01T13:16:20;27.88;;;25.75;;
22881;SDS011;11608;50.894;5.296;2023-04-01T13:35:18;29.00;;;26.70;;
22881;SDS011;11608;50.894;5.296;2023-04-01T13:42:56;29.58;;;27.35;;
22881;SDS011;11608;50.894;5.296;2023-04-01T14:13:43;28.15;;;26.15;;
22881;SDS011;11608;50.894;5.296;2023-04-01T14:24:15;28.02;;;26.02;;
22881;SDS011;11608;50.894;5.296;2023-04-01T14:29:35;27.25;;;25.35;;
22881;SDS011;11608;50.894;5.296;2023-04-01T14:32:09;26.55;;;24.45;;
22881;SDS011;11608;50.894;5.296;2023-04-01T14:47:28;27.02;;;25.13;;
22881;SDS011;11608;50.894;5.296;2023-04-01T14:50:08;26.73;;;24.73;;
22881;SDS011;11608;50.894;5.296;2023-04-01T14:52:38;26.15;;;24.35;;
22881;SDS011;11608;50.894;5.296;2023-04-01T14:58:13;27.10;;;25.20;;
22881;SDS011;11608;50.894;5.296;2023-04-01T15:00:41;27.25;;;25.35;;
22881;SDS011;11608;50.894;5.296;2023-04-01T15:04:07;27.45;;;25.55;;
22881;SDS011;11608;50.894;5.296;2023-04-01T15:15:09;26.88;;;24.98;;
22881;SDS011;11608;50.894;5.296;2023-04-01T15:34:45;27.35;;;25.40;;
22881;SDS011;11608;50.894;5.296;2023-04-01T15:37:33;27.65;;;25.73;;
22881;SDS011;11608;50.894;5.296;2023-04-01T15:43:05;27.65;;;25.75;;
22881;SDS011;11608;50.894;5.296;2023-04-01T15:48:12;28.30;;;26.40;;
22881;SDS011;11608;50.894;5.296;2023-04-01T15:50:48;28.25;;;26.25;;
22881;SDS011;11608;50.894;5.296;2023-04-01T15:53:23;28.35;;;26.40;;
22881;SDS011;11608;50.894;5.296;2023-04-01T15:55:56;28.85;;;26.80;;
22881;SDS011;11608;50.894;5.296;2023-04-01T16:14:29;28.23;;;26.23;;
22881;SDS011;11608;50.894;5.296;2023-04-01T16:22:13;27.90;;;26.00;;
22881;SDS011;11608;50.894;5.296;2023-04-01T16:24:50;27.20;;;25.40;;
22881;SDS011;11608;50.894;5.296;2023-04-01T16:27:24;27.60;;;25.80;;
22881;SDS011;11608;50.894;5.296;2023-04-01T16:30:03;27.30;;;25.50;;
22881;SDS011;11608;50.894;5.296;2023-04-01T16:32:41;28.48;;;26.58;;
22881;SDS011;11608;50.894;5.296;2023-04-01T16:40:40;30.17;;;28.25;;
22881;SDS011;11608;50.894;5.296;2023-04-01T16:43:13;31.15;;;29.13;;
22881;SDS011;11608;50.894;5.296;2023-04-01T16:58:27;33.70;;;31.50;;
22881;SDS011;11608;50.894;5.296;2023-04-01T17:01:09;35.13;;;32.90;;
22881;SDS011;11608;50.894;5.296;2023-04-01T17:03:44;36.55;;;34.13;;
22881;SDS011;11608;50.894;5.296;2023-04-01T17:12:11;35.25;;;32.92;;
22881;SDS011;11608;50.894;5.296;2023-04-01T17:14:43;35.42;;;33.03;;
22881;SDS011;11608;50.894;5.296;2023-04-01T17:17:19;33.67;;;31.38;;
22881;SDS011;11608;50.894;5.296;2023-04-01T17:25:20;32.20;;;30.10;;
22881;SDS011;11608;50.894;5.296;2023-04-01T17:27:53;35.78;;;33.58;;
22881;SDS011;11608;50.894;5.296;2023-04-01T17:30:44;35.72;;;33.25;;
22881;SDS011;11608;50.894;5.296;2023-04-01T17:35:58;35.28;;;33.08;;
22881;SDS011;11608;50.894;5.296;2023-04-01T17:43:48;34.83;;;32.65;;
22881;SDS011;11608;50.894;5.296;2023-04-01T17:46:33;33.83;;;31.73;;
22881;SDS011;11608;50.894;5.296;2023-04-01T17:51:35;32.47;;;30.48;;
22881;SDS011;11608;50.894;5.296;2023-04-01T18:25:29;30.48;;;28.48;;
22881;SDS011;11608;50.894;5.296;2023-04-01T18:30:53;31.63;;;29.63;;
22881;SDS011;11608;50.894;5.296;2023-04-01T18:33:25;30.60;;;28.55;;
22881;SDS011;11608;50.894;5.296;2023-04-01T18:49:07;35.20;;;32.80;;
22881;SDS011;11608;50.894;5.296;2023-04-01T18:51:51;35.55;;;33.15;;
22881;SDS011;11608;50.894;5.296;2023-04-01T18:54:27;36.47;;;34.08;;
22881;SDS011;11608;50.894;5.296;2023-04-01T18:57:07;33.67;;;31.38;;
22881;SDS011;11608;50.894;5.296;2023-04-01T19:02:05;33.95;;;31.50;;
22881;SDS011;11608;50.894;5.296;2023-04-01T19:04:43;35.13;;;32.78;;
22881;SDS011;11608;50.894;5.296;2023-04-01T19:07:29;36.42;;;33.92;;
22881;SDS011;11608;50.894;5.296;2023-04-01T19:10:00;33.97;;;31.63;;
22881;SDS011;11608;50.894;5.296;2023-04-01T19:14:56;35.25;;;32.65;;
22881;SDS011;11608;50.894;5.296;2023-04-01T19:20:15;34.63;;;32.30;;
22881;SDS011;11608;50.894;5.296;2023-04-01T19:22:48;36.97;;;34.30;;
22881;SDS011;11608;50.894;5.296;2023-04-01T19:27:50;33.80;;;31.50;;
22881;SDS011;11608;50.894;5.296;2023-04-01T19:35:38;35.45;;;32.88;;
22881;SDS011;11608;50.894;5.296;2023-04-01T19:46:18;35.50;;;32.97;;
22881;SDS011;11608;50.894;5.296;2023-04-01T19:53:52;36.83;;;34.13;;
22881;SDS011;11608;50.894;5.296;2023-04-01T19:56:22;35.40;;;32.80;;
22881;SDS011;11608;50.894;5.296;2023-04-01T19:58:56;37.08;;;34.42;;
22881;SDS011;11608;50.894;5.296;2023-04-01T20:03:58;36.28;;;33.67;;
22881;SDS011;11608;50.894;5.296;2023-04-01T20:06:51;37.60;;;34.83;;
22881;SDS011;11608;50.894;5.296;2023-04-01T20:12:18;37.38;;;34.58;;
22881;SDS011;11608;50.894;5.296;2023-04-01T20:14:58;38.03;;;35.22;;
22881;SDS011;11608;50.894;5.296;2023-04-01T20:17:43;38.67;;;35.78;;
22881;SDS011;11608;50.894;5.296;2023-04-01T20:20:20;40.88;;;37.78;;
22881;SDS011;11608;50.894;5.296;2023-04-01T20:25:26;38.20;;;35.40;;
22881;SDS011;11608;50.894;5.296;2023-04-01T20:41:23;38.45;;;35.55;;
22881;SDS011;11608;50.894;5.296;2023-04-01T20:49:20;38.45;;;35.55;;
22881;SDS011;11608;50.894;5.296;2023-04-01T20:54:24;39.88;;;36.88;;
22881;SDS011;11608;50.894;5.296;2023-04-01T21:06:57;40.03;;;37.13;;
22881;SDS011;11608;50.894;5.296;2023-04-01T21:09:49;40.58;;;37.58;;
22881;SDS011;11608;50.894;5.296;2023-04-01T21:12:29;40.53;;;37.53;;
22881;SDS011;11608;50.894;5.296;2023-04-01T21:54:00;40.28;;;37.17;;
22881;SDS011;11608;50.894;5.296;2023-04-01T22:07:15;43.35;;;40.15;;
22881;SDS011;11608;50.894;5.296;2023-04-01T22:12:48;40.30;;;37.10;;
22881;SDS011;11608;50.894;5.296;2023-04-01T22:17:59;39.95;;;36.85;;
22881;SDS011;11608;50.894;5.296;2023-04-01T22:20:35;40.72;;;37.40;;
22881;SDS011;11608;50.894;5.296;2023-04-01T22:26:02;39.78;;;36.65;;
22881;SDS011;11608;50.894;5.296;2023-04-01T22:28:39;38.63;;;35.72;;
22881;SDS011;11608;50.894;5.296;2023-04-01T22:31:08;39.97;;;36.97;;
22881;SDS011;11608;50.894;5.296;2023-04-01T22:36:12;40.90;;;37.90;;
22881;SDS011;11608;50.894;5.296;2023-04-01T22:41:31;39.97;;;37.00;;
22881;SDS011;11608;50.894;5.296;2023-04-01T22:43:59;37.92;;;35.13;;
22881;SDS011;11608;50.894;5.296;2023-04-01T22:56:50;35.67;;;33.08;;
22881;SDS011;11608;50.894;5.296;2023-04-01T23:01:48;37.88;;;34.97;;
22881;SDS011;11608;50.894;5.296;2023-04-01T23:04:17;36.13;;;33.53;;
22881;SDS011;11608;50.894;5.296;2023-04-01T23:06:47;36.83;;;33.92;;
22881;SDS011;11608;50.894;5.296;2023-04-01T23:12:02;38.97;;;35.97;;
22881;SDS011;11608;50.894;5.296;2023-04-01T23:14:34;39.75;;;36.85;;
22881;SDS011;11608;50.894;5.296;2023-04-01T23:17:09;38.75;;;35.75;;
22881;SDS011;11608;50.894;5.296;2023-04-01T23:24:55;38.50;;;35.60;;
22881;SDS011;11608;50.894;5.296;2023-04-01T23:29:51;37.67;;;34.78;;
22881;SDS011;11608;50.894;5.296;2023-04-01T23:32:24;38.88;;;35.88;;
22881;SDS011;11608;50.894;5.296;2023-04-01T23:34:58;39.88;;;36.83;;
22881;SDS011;11608;50.894;5.296;2023-04-01T23:37:25;39.45;;;36.45;;
22881;SDS011;11608;50.894;5.296;2023-04-01T23:39:52;39.22;;;36.22;;
22881;SDS011;11608;50.894;5.296;2023-04-01T23:42:23;38.95;;;35.85;;
22881;SDS011;11608;50.894;5.296;2023-04-01T23:44:51;39.00;;;36.03;;
22881;SDS011;11608;50.894;5.296;2023-04-01T23:47:22;39.55;;;36.40;;
22881;SDS011;11608;50.894;5.296;2023-04-01T23:49:59;38.75;;;35.75;;
22881;SDS011;11608;50.894;5.296;2023-04-01T23:52:30;36.95;;;34.05;;
22881;SDS011;11608;50.894;5.296;2023-04-01T23:55:13;36.95;;;34.15;;
22881;SDS011;11608;50.894;5.296;2023-04-01T23:57:40;37.03;;;34.33;;
